createdAt,value
2018-09-12T00:02:34.996Z,99.90
2018-09-12T00:07:15.177Z,99.90
2018-09-12T00:11:55.361Z,99.90
2018-09-12T00:16:36.121Z,99.90
2018-09-12T00:21:16.314Z,99.90
2018-09-12T00:25:56.912Z,99.90
2018-09-12T00:30:36.753Z,99.90
2018-09-12T00:35:16.907Z,99.90
2018-09-12T00:39:57.029Z,99.90
2018-09-12T00:44:38.431Z,99.90
2018-09-12T00:49:18.391Z,99.90
2018-09-12T00:53:58.617Z,99.90
2018-09-12T00:58:38.439Z,99.90
2018-09-12T01:03:18.557Z,99.90
2018-09-12T01:07:58.657Z,99.90
2018-09-12T01:12:39.024Z,99.90
2018-09-12T01:17:19.944Z,99.90
2018-09-12T01:22:00.553Z,99.90
2018-09-12T01:26:40.876Z,99.90
2018-09-12T01:31:22.258Z,99.90
2018-09-12T01:36:02.695Z,99.90
2018-09-12T01:40:43.039Z,99.90
2018-09-12T01:45:23.016Z,99.90
2018-09-12T01:50:03.076Z,99.90
2018-09-12T01:54:43.186Z,99.90
2018-09-12T01:59:23.136Z,99.90
2018-09-12T02:04:03.688Z,99.90
2018-09-12T02:08:43.935Z,99.90
2018-09-12T02:13:24.125Z,99.90
2018-09-12T02:18:04.704Z,99.90
2018-09-12T02:22:46.089Z,99.90
2018-09-12T02:27:26.955Z,99.90
2018-09-12T02:32:06.927Z,99.90
2018-09-12T02:36:47.128Z,99.90
2018-09-12T02:41:27.359Z,99.90
2018-09-12T02:46:08.457Z,99.90
2018-09-12T02:50:48.689Z,99.90
2018-09-12T02:55:28.806Z,99.90
2018-09-12T03:00:09.304Z,99.90
2018-09-12T03:04:53.228Z,99.90
2018-09-12T03:09:33.236Z,99.90
2018-09-12T03:14:15.029Z,99.90
2018-09-12T03:18:55.616Z,99.90
2018-09-12T03:23:36.373Z,99.90
2018-09-12T03:28:16.323Z,99.90
2018-09-12T03:32:56.614Z,99.90
2018-09-12T03:37:36.739Z,99.90
2018-09-12T03:42:17.845Z,99.90
2018-09-12T03:46:59.949Z,99.90
2018-09-12T03:51:40.415Z,99.90
2018-09-12T03:56:20.912Z,99.90
2018-09-12T04:01:01.355Z,99.90
2018-09-12T04:05:41.727Z,99.90
2018-09-12T04:10:21.609Z,99.90
2018-09-12T04:15:01.557Z,99.90
2018-09-12T04:19:41.568Z,99.90
2018-09-12T04:24:21.742Z,99.90
2018-09-12T04:29:02.593Z,99.90
2018-09-12T04:33:44.076Z,99.90
2018-09-12T04:38:23.952Z,99.90
2018-09-12T04:43:04.683Z,99.90
2018-09-12T04:47:45.076Z,99.90
2018-09-12T04:52:25.335Z,99.90
2018-09-12T04:57:05.826Z,99.90
2018-09-12T05:01:45.960Z,99.90
2018-09-12T05:06:28.952Z,99.90
2018-09-12T05:11:09.741Z,99.90
2018-09-12T05:15:49.776Z,99.90
2018-09-12T05:20:29.891Z,99.90
2018-09-12T05:25:10.153Z,99.90
2018-09-12T05:29:51.466Z,99.90
2018-09-12T05:34:33.335Z,99.90
2018-09-12T05:39:13.364Z,99.90
2018-09-12T05:43:53.730Z,99.90
2018-09-12T05:48:34.125Z,99.90
2018-09-12T05:53:14.120Z,99.90
2018-09-12T05:57:54.714Z,99.90
2018-09-12T06:02:34.720Z,99.90
2018-09-12T06:07:14.841Z,99.90
2018-09-12T06:11:54.963Z,99.90
2018-09-12T06:16:35.430Z,99.90
2018-09-12T06:21:16.644Z,99.90
2018-09-12T06:25:57.097Z,99.90
2018-09-12T06:30:37.750Z,99.90
2018-09-12T06:35:17.699Z,99.90
2018-09-12T06:39:58.182Z,99.90
2018-09-12T06:44:38.935Z,99.90
2018-09-12T06:49:18.979Z,99.90
2018-09-12T06:53:59.416Z,99.90
2018-09-12T06:58:40.065Z,99.90
2018-09-12T07:03:20.305Z,99.90
2018-09-12T07:08:01.184Z,99.90
2018-09-12T07:12:41.609Z,99.90
2018-09-12T07:17:21.651Z,99.90
2018-09-12T07:22:01.775Z,99.90
2018-09-12T07:26:41.949Z,99.90
2018-09-12T07:31:22.804Z,99.90
2018-09-12T07:36:04.449Z,99.90
2018-09-12T07:40:44.618Z,95.90
2018-09-12T07:45:25.609Z,92.60
2018-09-12T07:50:06.324Z,88.80
2018-09-12T07:54:48.245Z,84.10
2018-09-12T07:59:28.399Z,77.70
2018-09-12T08:04:09.400Z,71.60
2018-09-12T08:08:49.485Z,68.20
2018-09-12T08:13:29.563Z,66.80
2018-09-12T08:18:17.357Z,64.20
2018-09-12T08:22:57.833Z,61.90
2018-09-12T08:27:37.706Z,58.50
2018-09-12T08:32:18.616Z,57.60
2018-09-12T08:36:58.784Z,57.00
2018-09-12T08:41:39.009Z,56.40
2018-09-12T08:46:19.973Z,54.90
2018-09-12T08:51:01.771Z,52.80
2018-09-12T08:55:41.729Z,51.90
2018-09-12T09:00:26.810Z,51.30
2018-09-12T09:05:07.920Z,49.70
2018-09-12T09:09:47.940Z,48.70
2018-09-12T09:14:28.336Z,48.00
2018-09-12T09:19:08.652Z,47.00
2018-09-12T09:23:49.742Z,46.30
2018-09-12T09:28:30.064Z,42.80
2018-09-12T09:33:10.654Z,41.90
2018-09-12T09:37:50.880Z,39.70
2018-09-12T09:42:32.220Z,38.50
2018-09-12T09:47:12.796Z,37.60
2018-09-12T09:51:53.100Z,38.30
2018-09-12T09:56:33.467Z,38.20
2018-09-12T10:01:18.965Z,37.30
2018-09-12T10:06:04.526Z,36.80
2018-09-12T10:10:44.518Z,35.80
2018-09-12T10:15:25.381Z,34.90
2018-09-12T10:20:06.167Z,34.10
2018-09-12T10:24:46.519Z,34.20
2018-09-12T10:29:27.486Z,34.20
2018-09-12T10:34:08.477Z,33.30
2018-09-12T10:38:50.039Z,32.90
2018-09-12T10:43:31.388Z,32.30
2018-09-12T10:48:12.586Z,31.40
2018-09-12T10:52:54.098Z,31.50
2018-09-12T10:57:34.120Z,32.30
2018-09-12T11:02:14.381Z,32.40
2018-09-12T11:06:55.016Z,31.70
2018-09-12T11:11:34.889Z,30.70
2018-09-12T11:16:15.120Z,30.20
2018-09-12T11:20:55.101Z,29.80
2018-09-12T11:25:34.970Z,29.40
2018-09-12T11:30:15.681Z,29.20
2018-09-12T11:34:55.837Z,28.90
2018-09-12T11:39:36.393Z,28.50
2018-09-12T11:44:17.132Z,28.30
2018-09-12T11:48:57.861Z,27.90
2018-09-12T11:53:37.860Z,27.80
2018-09-12T11:58:18.865Z,27.50
2018-09-12T12:02:59.176Z,27.20
2018-09-12T12:07:40.583Z,27.10
2018-09-12T12:12:20.718Z,27.50
2018-09-12T12:17:02.093Z,27.20
2018-09-12T12:21:42.621Z,27.60
2018-09-12T12:26:22.694Z,27.70
2018-09-12T12:31:02.824Z,27.80
2018-09-12T12:35:42.851Z,27.60
2018-09-12T12:40:23.453Z,27.30
2018-09-12T12:45:04.056Z,27.90
2018-09-12T12:49:44.913Z,27.80
2018-09-12T12:54:24.849Z,28.10
2018-09-12T12:59:05.136Z,28.10
2018-09-12T13:03:44.960Z,27.90
2018-09-12T13:08:24.862Z,27.90
2018-09-12T13:13:04.718Z,28.10
2018-09-12T13:17:44.593Z,28.10
2018-09-12T13:22:24.436Z,28.10
2018-09-12T13:27:04.316Z,28.60
2018-09-12T13:31:44.387Z,28.40
2018-09-12T13:36:24.555Z,28.90
2018-09-12T13:41:04.765Z,28.70
2018-09-12T13:45:44.850Z,28.80
2018-09-12T13:50:25.775Z,29.10
2018-09-12T13:55:06.405Z,29.80
2018-09-12T13:59:46.325Z,29.70
2018-09-12T14:04:27.356Z,30.00
2018-09-12T14:09:09.702Z,30.30
2018-09-12T14:13:50.471Z,33.00
2018-09-12T14:18:30.904Z,32.90
2018-09-12T14:23:10.840Z,33.80
2018-09-12T14:27:51.145Z,34.40
2018-09-12T14:32:31.805Z,36.20
2018-09-12T14:37:11.836Z,36.80
2018-09-12T14:41:53.264Z,37.40
2018-09-12T14:46:33.436Z,38.60
2018-09-12T14:51:13.311Z,38.50
2018-09-12T14:55:53.025Z,39.10
2018-09-12T15:00:34.219Z,39.50
2018-09-12T15:05:14.488Z,39.90
2018-09-12T15:09:55.769Z,41.30
2018-09-12T15:14:36.223Z,41.90
2018-09-12T15:19:16.024Z,42.00
2018-09-12T15:23:56.164Z,42.20
2018-09-12T15:28:36.156Z,42.60
2018-09-12T15:33:16.171Z,43.30
2018-09-12T15:37:57.047Z,43.90
2018-09-12T15:42:37.576Z,44.70
2018-09-12T15:47:17.815Z,44.50
2018-09-12T15:51:58.476Z,45.00
2018-09-12T15:56:38.827Z,45.40
2018-09-12T16:01:19.278Z,46.10
2018-09-12T16:05:59.059Z,46.50
2018-09-12T16:10:39.564Z,46.60
2018-09-12T16:15:20.934Z,47.20
2018-09-12T16:20:00.636Z,47.30
2018-09-12T16:24:41.536Z,47.40
2018-09-12T16:29:21.304Z,47.60
2018-09-12T16:34:01.365Z,47.70
2018-09-12T16:38:47.931Z,48.00
2018-09-12T16:43:28.847Z,48.70
2018-09-12T16:48:09.442Z,48.50
2018-09-12T16:52:50.289Z,48.60
2018-09-12T16:57:30.398Z,48.90
2018-09-12T17:02:11.389Z,49.40
2018-09-12T17:06:51.236Z,49.70
2018-09-12T17:11:31.707Z,49.80
2018-09-12T17:16:11.676Z,50.20
2018-09-12T17:20:53.884Z,50.80
2018-09-12T17:25:33.770Z,51.20
2018-09-12T17:30:13.716Z,52.20
2018-09-12T17:34:53.670Z,54.70
2018-09-12T17:39:33.602Z,57.00
2018-09-12T17:44:13.425Z,58.40
2018-09-12T17:48:53.932Z,60.00
2018-09-12T17:53:34.071Z,63.10
2018-09-12T17:58:14.025Z,67.20
2018-09-12T18:02:54.107Z,71.90
2018-09-12T18:07:34.197Z,73.60
2018-09-12T18:12:13.992Z,77.30
2018-09-12T18:16:53.900Z,80.40
2018-09-12T18:21:33.746Z,84.00
2018-09-12T18:26:13.827Z,87.10
2018-09-12T18:30:53.817Z,89.30
2018-09-12T18:35:33.504Z,91.00
2018-09-12T18:40:13.551Z,92.20
2018-09-12T18:44:53.967Z,93.40
2018-09-12T18:49:33.863Z,94.40
2018-09-12T18:54:13.479Z,94.90
2018-09-12T18:58:54.483Z,95.70
2018-09-12T19:03:34.560Z,96.90
2018-09-12T19:08:15.899Z,97.70
2018-09-12T19:12:56.577Z,98.40
2018-09-12T19:17:37.366Z,98.80
2018-09-12T19:22:18.029Z,99.40
2018-09-12T19:26:58.580Z,99.90
2018-09-12T19:31:38.492Z,99.90
2018-09-12T19:36:18.303Z,99.90
2018-09-12T19:40:58.068Z,99.90
2018-09-12T19:45:38.834Z,99.90
2018-09-12T19:50:19.091Z,99.90
2018-09-12T19:54:59.558Z,99.90
2018-09-12T19:59:39.440Z,99.90
2018-09-12T20:04:20.016Z,99.90
2018-09-12T20:09:00.313Z,99.90
2018-09-12T20:13:40.725Z,99.90
2018-09-12T20:18:21.229Z,99.90
2018-09-12T20:23:01.024Z,99.90
2018-09-12T20:27:43.401Z,99.90
2018-09-12T20:32:24.064Z,99.90
2018-09-12T20:37:04.448Z,99.90
2018-09-12T20:41:44.244Z,99.90
2018-09-12T20:46:24.371Z,99.90
2018-09-12T20:51:04.163Z,99.90
2018-09-12T20:55:43.884Z,99.90
2018-09-12T21:00:23.852Z,99.90
2018-09-12T21:05:04.001Z,99.90
2018-09-12T21:09:43.979Z,99.90
2018-09-12T21:14:24.444Z,99.90
2018-09-12T21:19:04.624Z,99.90
2018-09-12T21:23:44.535Z,99.90
2018-09-12T21:28:24.575Z,99.90
2018-09-12T21:33:04.935Z,99.90
2018-09-12T21:37:45.191Z,99.90
2018-09-12T21:42:25.765Z,99.90
2018-09-12T21:47:05.686Z,99.90
2018-09-12T21:51:46.639Z,99.90
2018-09-12T21:56:27.210Z,99.90
2018-09-12T22:01:08.476Z,99.90
2018-09-12T22:05:49.290Z,99.90
2018-09-12T22:10:29.912Z,99.90
2018-09-12T22:15:09.836Z,99.90
2018-09-12T22:19:50.601Z,99.90
2018-09-12T22:24:30.542Z,99.90
2018-09-12T22:29:10.721Z,99.90
2018-09-12T22:33:50.534Z,99.90
2018-09-12T22:38:30.432Z,99.90
2018-09-12T22:43:10.396Z,99.90
2018-09-12T22:47:50.527Z,99.90
2018-09-12T22:52:31.175Z,99.90
2018-09-12T22:57:11.393Z,99.90
2018-09-12T23:01:51.580Z,99.90
2018-09-12T23:06:31.404Z,99.90
2018-09-12T23:11:12.408Z,99.90
2018-09-12T23:15:52.242Z,99.90
2018-09-12T23:20:32.145Z,99.90
2018-09-12T23:25:12.650Z,99.90
2018-09-12T23:29:52.561Z,99.90
2018-09-12T23:34:33.207Z,99.90
2018-09-12T23:39:14.349Z,99.90
2018-09-12T23:43:54.130Z,99.90
2018-09-12T23:48:34.048Z,99.90
2018-09-12T23:53:14.593Z,99.90
2018-09-12T23:57:54.813Z,99.90
